Chester, New Jersey
Current Conditions -  °F | °C
As of 10:53 AM on Sunday 23 Nov 2014 (Local Time) from KSMQ Reporting Station
Few Clouds Few Clouds  
Wind Chill: 49°   Ceiling: Unl
Heat Index: 49°   Visibility: 10mi
Dew Point: 23°   Wind: 0mph
Humidity: 36%   Direction: NA
Pressure: 30.18"   Gusts: NA
Location:  40.78°N, 74.7°W
Report Text: KSMQ 231553Z AUTO 00000KT 10SM FEW085 FEW110 09/M05 A3018 RMK AO2 SLP222 T00941050
Loading
Personal Weather Stations






























Interactive Weather Map New forecast layout! Learn more

10-Day Weather Forecast

Advertisements
Track Severe Weather on mobile